Terminal Aerodrome Forecast
Issued by NWS

Home | Current Version | Previous Version | Text Only | Print | Product List | Glossary On
Versions: 1 2 3 4 5 6 7 8 9 10 11 12 13 14 15 16 17
000
FTUS43 KIND 030706 AAA
TAFBMG
TAF AMD
KBMG 030706Z 0307/0406 00000KT 4SM BR SCT150
      TEMPO 0307/0311 1 1/2SM BR
     FM031200 00000KT P6SM SCT150
     FM031500 23005KT P6SM SCT030 BKN150
     FM031800 25008KT P6SM SCT040 BKN150
     FM040000 00000KT P6SM SCT100
      AMD LTD TO CLD VIS AND WIND TIL 031300=

USA.gov is the U.S. government's official web portal to all federal, state and local government web resources and services.